createdAt,value
2022-10-16T00:03:34.716Z,60.45
2022-10-16T00:08:31.255Z,61.65
2022-10-16T00:13:27.460Z,55.15
2022-10-16T00:18:23.919Z,51.47
2022-10-16T00:23:20.440Z,47.67
2022-10-16T00:28:16.685Z,45.08
2022-10-16T00:33:12.872Z,39.30
2022-10-16T00:38:09.087Z,28.77
2022-10-16T00:43:15.933Z,25.30
2022-10-16T00:48:13.497Z,20.33
2022-10-16T00:53:09.950Z,18.27
2022-10-16T00:58:06.494Z,19.92
2022-10-16T01:03:03.309Z,16.40
2022-10-16T01:08:05.425Z,15.60
2022-10-16T01:13:12.228Z,14.52
2022-10-16T01:18:14.660Z,14.10
2022-10-16T01:23:15.762Z,14.40
2022-10-16T01:28:13.297Z,13.05
2022-10-16T01:33:21.601Z,13.18
2022-10-16T01:38:31.582Z,14.18
2022-10-16T01:43:31.267Z,13.80
2022-10-16T01:48:27.472Z,15.52
2022-10-16T01:53:24.622Z,15.90
2022-10-16T01:58:21.951Z,15.05
2022-10-16T02:03:19.099Z,15.30
2022-10-16T02:08:15.327Z,14.98
2022-10-16T02:13:14.431Z,16.17
2022-10-16T02:18:11.338Z,15.50
2022-10-16T02:23:12.794Z,16.38
2022-10-16T02:28:09.025Z,16.33
2022-10-16T02:33:07.487Z,19.45
2022-10-16T02:38:04.143Z,17.35
2022-10-16T02:43:00.430Z,18.05
2022-10-16T02:47:56.658Z,18.92
2022-10-16T02:52:52.914Z,18.60
2022-10-16T02:57:49.128Z,19.20
2022-10-16T03:02:45.433Z,18.05
2022-10-16T03:07:41.722Z,20.20
2022-10-16T03:12:38.074Z,19.60
2022-10-16T03:17:34.341Z,19.70
2022-10-16T03:22:30.648Z,21.50
2022-10-16T03:27:27.272Z,23.90
2022-10-16T03:32:25.796Z,24.60
2022-10-16T03:37:22.132Z,26.13
2022-10-16T03:42:18.987Z,26.52
2022-10-16T03:47:15.227Z,26.95
2022-10-16T03:52:11.493Z,26.95
2022-10-16T03:57:07.875Z,26.27
2022-10-16T04:02:04.131Z,28.05
2022-10-16T04:07:00.715Z,27.73
2022-10-16T04:11:56.950Z,27.10
2022-10-16T04:16:53.145Z,26.75
2022-10-16T04:21:49.334Z,27.15
2022-10-16T04:26:45.607Z,27.40
2022-10-16T04:31:41.865Z,25.70
2022-10-16T04:36:38.067Z,26.75
2022-10-16T04:41:34.356Z,29.10
2022-10-16T04:46:30.639Z,28.63
2022-10-16T04:51:27.835Z,29.35
2022-10-16T04:56:24.179Z,29.67
2022-10-16T05:01:20.478Z,29.83
2022-10-16T05:06:16.722Z,30.88
2022-10-16T05:11:12.955Z,29.95
2022-10-16T05:16:09.171Z,34.25
2022-10-16T05:21:06.635Z,32.40
2022-10-16T05:26:02.910Z,32.90
2022-10-16T05:31:00.163Z,37.83
2022-10-16T05:35:56.382Z,36.78
2022-10-16T05:40:55.968Z,39.15
2022-10-16T05:45:58.806Z,41.20
2022-10-16T05:51:05.682Z,43.53
2022-10-16T05:56:02.260Z,41.67
2022-10-16T06:00:59.870Z,42.55
2022-10-16T06:05:56.111Z,42.30
2022-10-16T06:11:03.264Z,42.42
2022-10-16T06:16:00.377Z,39.88
2022-10-16T06:20:57.337Z,40.83
2022-10-16T06:25:53.684Z,38.30
2022-10-16T06:30:50.103Z,40.88
2022-10-16T06:35:46.441Z,42.80
2022-10-16T06:40:42.694Z,47.13
2022-10-16T06:45:38.958Z,48.28
2022-10-16T06:50:35.155Z,50.55
2022-10-16T06:55:31.367Z,55.10
2022-10-16T07:00:27.552Z,55.08
2022-10-16T07:05:23.803Z,57.25
2022-10-16T07:10:20.060Z,60.97
2022-10-16T07:15:16.462Z,55.97
2022-10-16T07:20:12.783Z,56.05
2022-10-16T07:25:09.176Z,50.35
2022-10-16T07:30:08.360Z,45.80
2022-10-16T07:35:05.847Z,45.05
2022-10-16T07:40:02.061Z,48.88
2022-10-16T07:44:58.237Z,45.97
2022-10-16T07:49:54.735Z,49.05
2022-10-16T07:54:50.942Z,46.25
2022-10-16T07:59:47.331Z,38.10
2022-10-16T08:04:43.924Z,35.00
2022-10-16T08:09:40.132Z,33.67
2022-10-16T08:14:36.355Z,35.38
2022-10-16T08:19:35.240Z,29.98
2022-10-16T08:24:32.149Z,28.83
2022-10-16T08:29:28.445Z,25.98
2022-10-16T08:34:24.787Z,24.98
2022-10-16T08:39:21.064Z,21.48
2022-10-16T08:44:20.185Z,19.88
2022-10-16T08:49:17.074Z,18.20
2022-10-16T08:54:27.211Z,17.33
2022-10-16T08:59:23.459Z,16.70
2022-10-16T09:04:38.232Z,17.75
2022-10-16T09:09:43.149Z,16.75
2022-10-16T09:14:50.453Z,15.27
2022-10-16T09:19:54.788Z,15.90
2022-10-16T09:24:51.197Z,14.95
2022-10-16T09:29:47.631Z,13.77
2022-10-16T09:34:46.292Z,13.18
2022-10-16T09:39:53.038Z,13.25
2022-10-16T09:44:50.815Z,11.23
2022-10-16T09:49:54.298Z,11.45
2022-10-16T09:54:57.786Z,10.50
2022-10-16T09:59:55.189Z,11.25
2022-10-16T10:04:58.011Z,10.43
2022-10-16T10:09:55.671Z,10.15
2022-10-16T10:14:53.038Z,11.63
2022-10-16T10:19:49.310Z,10.35
2022-10-16T10:24:46.231Z,10.98
2022-10-16T10:29:51.688Z,11.75
2022-10-16T10:34:56.724Z,10.80
2022-10-16T10:40:19.436Z,10.52
2022-10-16T10:45:21.186Z,10.73
2022-10-16T10:50:25.303Z,9.13
2022-10-16T10:55:40.358Z,8.80
2022-10-16T11:00:47.025Z,9.27
2022-10-16T11:05:45.587Z,9.15
2022-10-16T11:10:47.729Z,11.10
2022-10-16T11:15:45.279Z,8.25
2022-10-16T11:20:43.672Z,8.43
2022-10-16T11:25:40.035Z,8.80
2022-10-16T11:30:45.771Z,7.63
2022-10-16T11:36:01.096Z,7.50
2022-10-16T11:40:59.977Z,7.68
2022-10-16T11:45:58.323Z,7.07
2022-10-16T11:50:55.795Z,7.50
2022-10-16T11:55:52.850Z,10.00
2022-10-16T12:01:00.947Z,8.20
2022-10-16T12:06:15.865Z,7.97
2022-10-16T12:11:24.575Z,7.72
2022-10-16T12:16:22.461Z,7.97
2022-10-16T12:21:20.160Z,7.88
2022-10-16T12:26:24.503Z,10.18
2022-10-16T12:31:21.183Z,7.93
2022-10-16T12:36:28.202Z,9.02
2022-10-16T12:41:28.728Z,7.72
2022-10-16T12:46:30.812Z,8.80
2022-10-16T12:51:29.854Z,8.82
2022-10-16T12:56:32.761Z,6.68
2022-10-16T13:01:28.952Z,6.75
2022-10-16T13:06:35.525Z,7.25
2022-10-16T13:11:40.626Z,9.68
2022-10-16T13:16:45.790Z,7.70
2022-10-16T13:21:50.577Z,9.18
2022-10-16T13:27:02.110Z,7.53
2022-10-16T13:31:59.270Z,7.57
2022-10-16T13:36:55.627Z,6.50
2022-10-16T13:42:10.557Z,6.90
2022-10-16T13:47:06.843Z,8.82
2022-10-16T13:52:03.200Z,7.20
2022-10-16T13:57:15.790Z,9.27
2022-10-16T14:02:31.491Z,6.93
2022-10-16T14:07:29.275Z,8.43
2022-10-16T14:12:28.186Z,9.00
2022-10-16T14:17:29.790Z,5.82
2022-10-16T14:22:36.567Z,6.63
2022-10-16T14:27:34.440Z,8.02
2022-10-16T14:32:30.717Z,8.93
2022-10-16T14:37:28.529Z,11.40
2022-10-16T14:42:25.768Z,10.30
2022-10-16T14:47:26.256Z,6.70
2022-10-16T14:52:22.839Z,8.45
2022-10-16T14:57:20.564Z,7.10
2022-10-16T15:02:17.099Z,8.80
2022-10-16T15:07:13.317Z,8.25
2022-10-16T15:12:09.586Z,11.98
2022-10-16T15:17:05.936Z,7.45
2022-10-16T15:22:02.167Z,8.48
2022-10-16T15:26:58.438Z,7.28
2022-10-16T15:31:54.627Z,7.60
2022-10-16T15:36:51.065Z,6.32
2022-10-16T15:41:52.173Z,6.80
2022-10-16T15:46:48.840Z,8.52
2022-10-16T15:51:45.707Z,8.63
2022-10-16T15:56:41.935Z,7.82
2022-10-16T16:01:38.230Z,7.90
2022-10-16T16:06:35.211Z,12.13
2022-10-16T16:11:32.954Z,8.55
2022-10-16T16:16:29.147Z,7.97
2022-10-16T16:21:25.456Z,7.78
2022-10-16T16:26:21.762Z,10.32
2022-10-16T16:31:18.104Z,9.13
2022-10-16T16:36:15.888Z,7.85
2022-10-16T16:41:16.013Z,8.40
2022-10-16T16:46:12.667Z,11.77
2022-10-16T16:51:10.960Z,15.43
2022-10-16T16:56:07.688Z,11.00
2022-10-16T17:01:20.988Z,9.93
2022-10-16T17:06:20.381Z,9.15
2022-10-16T17:11:18.628Z,11.95
2022-10-16T17:16:15.097Z,12.10
2022-10-16T17:21:11.504Z,10.98
2022-10-16T17:26:12.168Z,11.50
2022-10-16T17:36:07.688Z,16.80
2022-10-16T17:41:18.033Z,16.80
2022-10-16T17:46:15.200Z,11.80
2022-10-16T17:51:12.522Z,12.73
2022-10-16T17:56:12.722Z,13.57
2022-10-16T18:01:19.537Z,14.80
2022-10-16T18:06:19.006Z,16.25
2022-10-16T18:11:19.321Z,15.57
2022-10-16T18:16:15.867Z,18.13
2022-10-16T18:21:14.164Z,16.85
2022-10-16T18:26:11.540Z,17.23
2022-10-16T18:31:09.339Z,23.85
2022-10-16T18:36:07.087Z,19.15
2022-10-16T18:41:05.503Z,18.55
2022-10-16T18:46:03.193Z,17.92
2022-10-16T18:51:09.895Z,20.27
2022-10-16T18:56:06.695Z,20.70
2022-10-16T19:01:04.583Z,22.45
2022-10-16T19:06:01.784Z,22.65
2022-10-16T19:11:05.929Z,26.13
2022-10-16T19:16:18.729Z,23.00
2022-10-16T19:21:16.119Z,23.83
2022-10-16T19:26:13.959Z,22.08
2022-10-16T19:31:12.371Z,25.48
2022-10-16T19:36:08.722Z,26.55
2022-10-16T19:41:12.350Z,27.80
2022-10-16T19:46:09.774Z,28.38
2022-10-16T19:51:06.181Z,28.88
2022-10-16T19:56:11.172Z,32.70
2022-10-16T20:01:07.466Z,31.70
2022-10-16T20:06:06.399Z,32.53
2022-10-16T20:11:02.839Z,31.90
2022-10-16T20:15:59.386Z,33.25
2022-10-16T20:20:55.771Z,31.25
2022-10-16T20:25:52.850Z,35.90
2022-10-16T20:30:50.060Z,36.17
2022-10-16T20:35:47.677Z,36.15
2022-10-16T20:40:47.964Z,35.78
2022-10-16T20:45:44.895Z,34.72
2022-10-16T20:50:41.791Z,35.17
2022-10-16T20:55:38.025Z,36.05
2022-10-16T21:00:34.261Z,37.50
2022-10-16T21:05:31.428Z,36.65
2022-10-16T21:10:29.435Z,34.75
2022-10-16T21:15:25.654Z,40.80
2022-10-16T21:20:21.856Z,36.15
2022-10-16T21:25:18.213Z,36.25
2022-10-16T21:30:14.427Z,37.80
2022-10-16T21:35:10.627Z,40.30
2022-10-16T21:40:07.252Z,40.80
2022-10-16T21:45:03.703Z,43.83
2022-10-16T21:49:59.879Z,44.45
2022-10-16T21:54:56.187Z,43.63
2022-10-16T21:59:52.416Z,48.45
2022-10-16T22:04:48.586Z,46.45
2022-10-16T22:09:44.801Z,50.95
2022-10-16T22:14:41.069Z,51.05
2022-10-16T22:19:37.296Z,48.85
2022-10-16T22:24:33.504Z,53.95
2022-10-16T22:29:29.811Z,51.75
2022-10-16T22:34:27.914Z,52.63
2022-10-16T22:39:24.225Z,53.17
2022-10-16T22:44:20.404Z,52.40
2022-10-16T22:49:18.443Z,56.13
2022-10-16T22:54:14.898Z,52.67
2022-10-16T22:59:11.259Z,58.78
2022-10-16T23:04:07.846Z,58.25
2022-10-16T23:09:04.096Z,59.55
2022-10-16T23:14:00.365Z,56.97
2022-10-16T23:18:57.887Z,61.60
2022-10-16T23:23:54.510Z,62.88
2022-10-16T23:28:50.974Z,61.85
2022-10-16T23:33:47.388Z,66.25
2022-10-16T23:38:43.979Z,72.15
2022-10-16T23:43:40.392Z,71.93
2022-10-16T23:48:39.875Z,77.72
2022-10-16T23:53:36.502Z,82.07
2022-10-16T23:58:32.726Z,85.20
